Time;durP1;ratioP1;P1;durP2;ratioP2;P2;SDS_P1;SDS_P2;PMS_P1;PMS_P2;Temp;Humidity;BMP_temperature;BMP_pressure;BME280_temperature;BME280_humidity;BME280_pressure;Samples;Min_cycle;Max_cycle;Signal;HPM_P1;HPM_P2
2023/02/08 00:01:21;;;;;;;52.63;23.05;;;;;;;-2.66;91.24;104185.34;6104035;19;20258;-73
2023/02/08 00:03:27;;;;;;;50.20;21.13;;;;;;;-2.66;91.30;104177.59;6100334;19;20028;-75
2023/02/08 00:05:33;;;;;;;43.10;19.52;;;;;;;-2.64;91.60;104175.13;6102507;19;20017;-73
2023/02/08 00:07:45;;;;;;;59.08;21.90;;;;;;;-2.67;91.39;104180.94;6102065;19;20017;-74
2023/02/08 00:09:50;;;;;;;48.53;20.33;;;;;;;-2.73;91.30;104174.50;6102789;19;20018;-73
2023/02/08 00:11:56;;;;;;;51.05;21.25;;;;;;;-2.77;90.95;104183.69;6094749;19;20078;-72
2023/02/08 00:14:03;;;;;;;46.15;20.80;;;;;;;-2.78;91.46;104179.34;6100553;19;20010;-72
2023/02/08 00:16:11;;;;;;;45.03;17.42;;;;;;;-2.85;90.28;104179.69;6099929;19;20480;-74
2023/02/08 00:18:17;;;;;;;38.40;17.45;;;;;;;-2.84;90.32;104173.78;6099860;19;20035;-74
2023/02/08 00:20:22;;;;;;;42.80;18.13;;;;;;;-2.82;91.41;104168.72;6096693;19;21255;-73
2023/02/08 00:22:27;;;;;;;44.35;18.40;;;;;;;-2.81;91.65;104166.28;6099012;19;20010;-73
2023/02/08 00:24:35;;;;;;;37.70;17.23;;;;;;;-2.78;91.53;104163.91;6099799;19;20040;-74
2023/02/08 00:26:40;;;;;;;45.35;18.30;;;;;;;-2.81;91.35;104155.09;6099481;19;20097;-74
2023/02/08 00:28:45;;;;;;;35.85;16.83;;;;;;;-2.84;90.74;104154.84;6098591;19;20014;-73
2023/02/08 00:30:50;;;;;;;45.42;20.38;;;;;;;-2.86;91.27;104152.19;6101200;19;20010;-73
2023/02/08 00:32:55;;;;;;;41.95;16.13;;;;;;;-2.89;90.62;104157.13;6100238;19;20006;-74
2023/02/08 00:35:03;;;;;;;43.28;19.65;;;;;;;-2.87;91.28;104153.88;6096838;19;20355;-74
2023/02/08 00:37:09;;;;;;;34.45;16.45;;;;;;;-2.84;91.30;104166.06;6099244;19;20010;-73
2023/02/08 00:39:16;;;;;;;35.10;17.10;;;;;;;-2.92;91.25;104154.38;6097987;19;20074;-74
2023/02/08 00:41:25;;;;;;;45.88;19.27;;;;;;;-2.91;91.08;104158.72;6098500;19;20014;-73
2023/02/08 00:43:30;;;;;;;45.63;19.27;;;;;;;-2.88;92.28;104153.75;6100595;19;20044;-73
2023/02/08 00:45:35;;;;;;;42.10;18.33;;;;;;;-2.93;91.87;104144.84;6097750;19;20329;-74
2023/02/08 00:47:40;;;;;;;40.72;16.85;;;;;;;-2.93;91.70;104140.56;6099048;19;20019;-74
2023/02/08 00:49:45;;;;;;;37.50;17.83;;;;;;;-2.92;91.54;104141.50;6099055;19;20098;-73
2023/02/08 00:51:52;;;;;;;46.17;19.17;;;;;;;-2.87;91.40;104137.53;6107851;19;20007;-74
2023/02/08 00:53:57;;;;;;;47.25;21.38;;;;;;;-2.78;91.58;104137.28;6096416;19;20006;-72
2023/02/08 00:56:02;;;;;;;50.40;19.00;;;;;;;-2.76;91.46;104139.16;6103751;19;20503;-73
2023/02/08 00:58:11;;;;;;;48.97;19.40;;;;;;;-2.82;91.60;104136.16;6104828;19;20641;-73
2023/02/08 01:00:18;;;;;;;43.25;19.38;;;;;;;-2.83;92.07;104141.22;6106886;19;20042;-73
2023/02/08 01:02:23;;;;;;;42.72;18.73;;;;;;;-2.92;91.30;104144.06;6102967;19;20022;-74
2023/02/08 01:04:28;;;;;;;40.65;19.67;;;;;;;-2.93;92.08;104145.72;6102304;19;20040;-76
2023/02/08 01:06:33;;;;;;;44.10;18.20;;;;;;;-2.97;91.63;104148.00;6104879;19;20527;-74
2023/02/08 01:08:39;;;;;;;46.97;20.42;;;;;;;-2.99;92.13;104150.47;6105274;19;20467;-73
2023/02/08 01:10:44;;;;;;;30.77;16.95;;;;;;;-3.01;91.86;104151.13;6098509;19;20015;-75
2023/02/08 01:12:49;;;;;;;41.78;19.15;;;;;;;-3.05;91.96;104150.03;6104222;19;20439;-73
2023/02/08 01:14:58;;;;;;;42.03;20.13;;;;;;;-3.06;92.63;104148.25;6102586;19;20689;-74
2023/02/08 01:17:03;;;;;;;38.92;18.80;;;;;;;-3.04;92.59;104140.66;6103578;19;20018;-73
2023/02/08 01:19:11;;;;;;;40.13;16.63;;;;;;;-3.06;92.24;104147.34;6103842;19;20490;-73
2023/02/08 01:21:19;;;;;;;35.40;16.75;;;;;;;-3.11;92.00;104150.53;6105105;19;20017;-74
2023/02/08 01:23:25;;;;;;;39.55;17.75;;;;;;;-3.12;92.14;104152.97;6105856;19;20011;-73
2023/02/08 01:25:30;;;;;;;39.45;19.30;;;;;;;-3.13;92.37;104149.53;6108202;19;20031;-74
2023/02/08 01:27:35;;;;;;;41.95;18.23;;;;;;;-3.10;92.66;104149.72;6107567;19;20142;-74
2023/02/08 01:29:40;;;;;;;38.08;17.27;;;;;;;-3.11;92.11;104142.81;6107060;19;20022;-72
2023/02/08 01:31:48;;;;;;;36.42;16.40;;;;;;;-3.12;91.87;104143.56;6104457;19;20290;-73
2023/02/08 01:33:53;;;;;;;40.22;17.55;;;;;;;-3.13;92.09;104138.34;6107578;19;20039;-74
2023/02/08 01:35:58;;;;;;;38.10;17.02;;;;;;;-3.14;92.37;104147.72;6103549;19;20007;-73
2023/02/08 01:38:03;;;;;;;36.88;14.88;;;;;;;-3.13;92.30;104139.22;6106252;19;20033;-74
2023/02/08 01:40:12;;;;;;;35.45;17.25;;;;;;;-3.13;91.98;104134.09;6109867;19;20048;-74
2023/02/08 01:42:20;;;;;;;40.08;17.02;;;;;;;-3.12;92.04;104142.69;6111259;19;20039;-73
2023/02/08 01:44:58;;;;;;;31.10;14.32;;;;;;;-3.17;91.94;104141.47;6109438;19;20024;-74
2023/02/08 01:47:06;;;;;;;29.25;14.45;;;;;;;-3.22;91.41;104140.25;6101931;19;20011;-74
2023/02/08 01:49:17;;;;;;;41.00;17.90;;;;;;;-3.27;91.70;104139.06;6105579;19;20040;-74
2023/02/08 01:51:25;;;;;;;40.25;18.60;;;;;;;-3.26;91.92;104149.47;6104276;19;20025;-74
2023/02/08 01:53:32;;;;;;;33.55;16.02;;;;;;;-3.31;91.42;104135.38;6099947;19;20421;-75
2023/02/08 01:55:44;;;;;;;31.02;16.65;;;;;;;-3.28;91.89;104138.16;6102077;19;20011;-72
2023/02/08 01:57:52;;;;;;;31.10;15.82;;;;;;;-3.19;92.46;104135.31;6103444;19;20467;-72
2023/02/08 02:00:00;;;;;;;34.88;15.90;;;;;;;-3.12;93.08;104127.25;6104343;19;20320;-73
2023/02/08 02:02:11;;;;;;;36.53;18.23;;;;;;;-3.15;92.20;104134.75;6099380;19;20136;-73
2023/02/08 02:04:19;;;;;;;32.88;15.80;;;;;;;-3.22;91.75;104133.44;6105162;19;20011;-73
2023/02/08 02:06:31;;;;;;;36.55;16.02;;;;;;;-3.25;92.12;104135.78;6104448;19;20010;-73
2023/02/08 02:08:36;;;;;;;38.08;16.25;;;;;;;-3.26;91.91;104141.75;6102429;19;20366;-74
2023/02/08 02:10:42;;;;;;;34.38;17.02;;;;;;;-3.33;91.87;104136.94;6104359;19;20010;-73
2023/02/08 02:12:48;;;;;;;39.55;17.80;;;;;;;-3.30;92.41;104137.16;6102110;19;20010;-73
2023/02/08 02:14:53;;;;;;;39.13;18.48;;;;;;;-3.32;92.41;104138.72;6104199;19;20098;-73
2023/02/08 02:17:00;;;;;;;31.08;14.80;;;;;;;-3.32;92.57;104133.56;6104155;19;20023;-74
2023/02/08 02:19:19;;;;;;;35.28;17.33;;;;;;;-3.33;92.52;104131.81;6103176;19;20003;-73
2023/02/08 02:21:51;;;;;;;40.92;17.92;;;;;;;-3.28;93.16;104129.56;6103113;19;20414;-73
2023/02/08 02:24:28;;;;;;;33.58;16.23;;;;;;;-3.31;92.37;104130.25;6103291;19;20044;-73
2023/02/08 02:27:13;;;;;;;36.72;15.88;;;;;;;-3.35;92.30;104117.94;6097815;19;20019;-74
2023/02/08 02:29:42;;;;;;;35.92;17.50;;;;;;;-3.40;92.75;104122.75;6082142;19;20006;-73
2023/02/08 02:32:20;;;;;;;41.25;17.17;;;;;;;-3.46;92.02;104121.44;6101543;19;20010;-74
2023/02/08 02:34:33;;;;;;;42.65;17.70;;;;;;;-3.38;92.67;104121.19;6096107;19;20011;-72
2023/02/08 02:36:51;;;;;;;37.00;15.93;;;;;;;-3.37;92.83;104120.44;6082277;19;20539;-73
2023/02/08 02:39:07;;;;;;;36.70;15.55;;;;;;;-3.40;92.47;104120.19;6099440;19;20333;-73
2023/02/08 02:43:48;;;;;;;37.30;16.17;;;;;;;-3.42;92.51;104121.78;6103047;19;20018;-75
2023/02/08 02:46:04;;;;;;;36.80;15.77;;;;;;;-3.47;92.38;104119.69;5960523;19;2788681;-72
2023/02/08 02:48:20;;;;;;;36.45;15.52;;;;;;;-3.51;92.21;104125.38;6078483;19;20014;-74
2023/02/08 02:50:32;;;;;;;31.48;16.10;;;;;;;-3.48;93.33;104117.88;6103996;19;20027;-74
2023/02/08 02:52:42;;;;;;;33.90;15.60;;;;;;;-3.55;92.62;104117.44;6099404;19;20023;-75
2023/02/08 02:54:52;;;;;;;34.95;16.33;;;;;;;-3.52;93.02;104111.63;6101031;19;20602;-74
2023/02/08 02:57:04;;;;;;;35.58;15.25;;;;;;;-3.49;93.25;104110.97;6103542;19;20011;-74
2023/02/08 02:59:12;;;;;;;40.47;17.50;;;;;;;-3.52;92.84;104119.34;6095784;19;20006;-74
2023/02/08 03:01:25;;;;;;;36.15;17.60;;;;;;;-3.58;92.46;104112.09;6101811;19;20426;-73
2023/02/08 03:03:35;;;;;;;41.95;19.23;;;;;;;-3.58;93.17;104113.75;6098542;19;20039;-74
2023/02/08 03:05:40;;;;;;;39.78;18.23;;;;;;;-3.54;93.08;104113.19;6101134;19;20354;-73
2023/02/08 03:08:08;;;;;;;41.70;17.48;;;;;;;-3.63;92.60;104117.72;6076928;19;20410;-73
2023/02/08 03:10:32;;;;;;;35.88;15.40;;;;;;;-3.67;92.51;104115.69;6100508;19;20021;-73
2023/02/08 03:12:48;;;;;;;36.88;15.63;;;;;;;-3.59;93.38;104109.41;6098006;19;20018;-73
2023/02/08 03:15:00;;;;;;;33.47;16.58;;;;;;;-3.62;92.94;104107.50;6099724;19;20025;-73
2023/02/08 03:17:16;;;;;;;32.97;16.17;;;;;;;-3.58;93.30;104106.97;6101894;19;20015;-73
2023/02/08 03:19:32;;;;;;;38.40;18.25;;;;;;;-3.69;92.33;104109.53;6100477;19;20044;-74
2023/02/08 03:21:45;;;;;;;35.15;16.63;;;;;;;-3.67;92.88;104103.72;6100036;19;20094;-73
2023/02/08 03:24:01;;;;;;;43.28;16.85;;;;;;;-3.71;92.83;104100.81;6099818;19;20052;-73
2023/02/08 03:26:12;;;;;;;37.45;18.08;;;;;;;-3.69;93.08;104094.13;6098940;19;20003;-73
2023/02/08 03:28:26;;;;;;;37.30;17.17;;;;;;;-3.69;93.30;104095.00;6101572;19;20006;-74
2023/02/08 03:30:37;;;;;;;43.13;17.20;;;;;;;-3.72;92.85;104084.53;6100762;19;20011;-74
2023/02/08 03:32:48;;;;;;;34.15;15.23;;;;;;;-3.73;92.96;104094.72;6100953;19;20082;-74
2023/02/08 03:35:03;;;;;;;36.03;14.82;;;;;;;-3.74;92.66;104093.78;6100449;19;20447;-74
2023/02/08 03:37:13;;;;;;;38.40;16.98;;;;;;;-3.74;92.79;104086.09;6102316;19;20082;-74
2023/02/08 03:39:23;;;;;;;34.08;15.15;;;;;;;-3.71;92.54;104085.41;6099947;19;20042;-73
2023/02/08 03:41:32;;;;;;;32.55;15.80;;;;;;;-3.62;92.83;104081.81;6099964;19;20010;-73
2023/02/08 03:43:42;;;;;;;38.47;16.35;;;;;;;-3.53;92.93;104076.41;6102323;19;20011;-74
2023/02/08 03:45:54;;;;;;;43.22;17.00;;;;;;;-3.57;92.62;104085.59;6101442;19;20017;-74
2023/02/08 03:48:02;;;;;;;33.00;15.73;;;;;;;-3.62;92.52;104081.81;6099509;19;20040;-74
2023/02/08 03:50:16;;;;;;;36.00;17.00;;;;;;;-3.64;92.58;104079.91;6092806;19;20010;-74
2023/02/08 03:52:21;;;;;;;24.38;14.85;;;;;;;-3.70;92.37;104084.66;6099550;19;20015;-74
2023/02/08 03:54:32;;;;;;;39.05;15.60;;;;;;;-3.69;93.34;104082.16;6102043;19;20121;-74
2023/02/08 03:56:43;;;;;;;32.47;16.60;;;;;;;-3.75;93.24;104090.34;6102171;19;20014;-74
2023/02/08 03:58:54;;;;;;;31.17;14.50;;;;;;;-3.76;93.09;104079.97;6100549;19;20018;-74
2023/02/08 04:01:05;;;;;;;30.30;15.65;;;;;;;-3.79;92.69;104088.34;6101835;19;20026;-73
2023/02/08 04:03:15;;;;;;;36.08;16.63;;;;;;;-3.79;92.72;104090.00;6099049;19;20048;-74
2023/02/08 04:05:23;;;;;;;38.67;16.27;;;;;;;-3.82;92.55;104090.72;6100938;19;20089;-74
2023/02/08 04:07:29;;;;;;;33.95;15.30;;;;;;;-3.85;92.43;104093.03;6101299;19;20413;-74
2023/02/08 04:09:36;;;;;;;35.28;16.40;;;;;;;-3.87;92.61;104103.97;6099829;19;20014;-74
2023/02/08 04:11:42;;;;;;;34.55;16.48;;;;;;;-3.87;92.79;104099.78;6095581;19;20015;-73
2023/02/08 04:13:53;;;;;;;39.42;18.30;;;;;;;-3.90;92.75;104103.78;6099472;19;20018;-73
2023/02/08 04:16:01;;;;;;;32.22;17.70;;;;;;;-3.86;93.36;104101.53;6098679;19;20010;-74
2023/02/08 04:18:06;;;;;;;37.70;17.65;;;;;;;-3.86;93.51;104100.66;6098034;19;20371;-73
2023/02/08 04:20:12;;;;;;;37.22;17.35;;;;;;;-3.90;93.43;104099.53;6099806;19;20488;-74
2023/02/08 04:22:20;;;;;;;35.67;17.55;;;;;;;-3.89;93.30;104095.31;6102371;19;20022;-74
2023/02/08 04:24:26;;;;;;;36.08;15.77;;;;;;;-3.95;92.99;104097.41;6101535;19;20006;-74
2023/02/08 04:26:31;;;;;;;30.17;16.13;;;;;;;-3.98;92.88;104093.88;6103358;19;20388;-74
2023/02/08 04:28:36;;;;;;;40.28;16.20;;;;;;;-4.02;92.47;104089.28;6104330;19;20049;-74
2023/02/08 04:30:41;;;;;;;34.45;16.60;;;;;;;-3.99;93.30;104084.34;6108321;19;20022;-74
2023/02/08 04:32:49;;;;;;;29.92;15.75;;;;;;;-4.04;93.02;104087.38;6107796;19;20496;-74
2023/02/08 04:34:55;;;;;;;36.35;15.35;;;;;;;-4.01;93.34;104090.16;6106032;19;20344;-74
2023/02/08 04:37:00;;;;;;;33.30;16.55;;;;;;;-4.06;93.03;104087.25;6105300;19;20014;-74
2023/02/08 04:39:08;;;;;;;35.35;14.45;;;;;;;-4.08;92.89;104083.72;6105327;19;20413;-74
2023/02/08 04:41:13;;;;;;;36.63;17.48;;;;;;;-4.09;93.02;104087.03;6106564;19;20019;-74
2023/02/08 04:43:18;;;;;;;39.28;17.50;;;;;;;-4.09;93.03;104081.91;6103537;19;20032;-75
2023/02/08 04:45:24;;;;;;;40.38;19.67;;;;;;;-4.12;93.11;104084.25;6102680;19;20599;-75
2023/02/08 04:47:30;;;;;;;35.97;18.20;;;;;;;-4.15;92.65;104084.03;6101150;19;20126;-75
2023/02/08 04:49:35;;;;;;;35.75;17.13;;;;;;;-4.11;92.91;104080.91;6101853;19;20156;-75
2023/02/08 04:51:40;;;;;;;39.25;17.80;;;;;;;-4.14;92.65;104080.69;6103223;19;20027;-73
2023/02/08 04:53:45;;;;;;;40.72;18.30;;;;;;;-4.18;92.63;104078.69;6071077;19;20381;-74
2023/02/08 04:55:53;;;;;;;40.92;18.38;;;;;;;-4.20;92.58;104076.00;6100784;19;20074;-74
2023/02/08 04:58:02;;;;;;;39.67;18.02;;;;;;;-4.22;92.96;104069.84;6101860;19;20014;-75
2023/02/08 05:00:11;;;;;;;37.78;17.63;;;;;;;-4.18;93.19;104065.84;6093121;19;20011;-73
2023/02/08 05:02:19;;;;;;;39.40;16.88;;;;;;;-4.23;93.03;104068.09;6101374;19;20313;-73
2023/02/08 05:04:25;;;;;;;42.08;17.63;;;;;;;-4.21;92.75;104066.53;6099030;19;20007;-73
2023/02/08 05:06:29;;;;;;;45.88;16.75;;;;;;;-4.18;93.10;104067.53;6102847;19;20346;-74
2023/02/08 05:08:37;;;;;;;35.63;15.48;;;;;;;-4.20;93.12;104062.28;6100826;19;20007;-74
2023/02/08 05:10:47;;;;;;;31.50;15.20;;;;;;;-4.16;93.30;104058.25;6097602;19;20357;-73
2023/02/08 05:12:55;;;;;;;34.90;16.42;;;;;;;-4.01;93.08;104062.78;6099327;19;20003;-74
2023/02/08 05:15:03;;;;;;;31.55;15.40;;;;;;;-3.95;93.36;104058.88;6097722;19;20025;-73
2023/02/08 05:17:08;;;;;;;30.58;15.95;;;;;;;-3.89;93.18;104065.34;6100878;19;20241;-73
2023/02/08 05:19:16;;;;;;;34.47;16.60;;;;;;;-3.86;92.90;104063.00;6097800;19;20044;-73
2023/02/08 05:21:22;;;;;;;43.25;16.65;;;;;;;-3.73;93.24;104059.63;6096371;19;20021;-73
2023/02/08 05:23:28;;;;;;;38.50;18.70;;;;;;;-3.66;92.99;104060.94;6098631;19;20028;-74
2023/02/08 05:25:33;;;;;;;31.88;18.45;;;;;;;-3.58;92.80;104050.41;6100076;19;20015;-75
2023/02/08 05:27:41;;;;;;;32.70;17.05;;;;;;;-3.50;92.74;104052.59;6097568;19;20030;-74
2023/02/08 05:29:52;;;;;;;33.13;18.45;;;;;;;-3.51;92.28;104064.56;6100489;19;20386;-73
2023/02/08 05:31:57;;;;;;;36.78;16.25;;;;;;;-3.50;92.07;104057.75;6100914;19;20015;-74
2023/02/08 05:34:02;;;;;;;37.72;17.92;;;;;;;-3.53;91.95;104053.28;6093567;19;20007;-72
2023/02/08 05:36:10;;;;;;;37.03;18.42;;;;;;;-3.56;92.27;104065.94;6099069;19;20034;-73
2023/02/08 05:38:15;;;;;;;31.88;17.25;;;;;;;-3.61;91.94;104060.44;6104755;19;20085;-74
2023/02/08 05:40:20;;;;;;;35.08;16.63;;;;;;;-3.62;92.13;104058.69;6104443;19;20101;-74
2023/02/08 05:42:26;;;;;;;33.55;15.15;;;;;;;-3.60;92.14;104054.53;6105414;19;20100;-73
2023/02/08 05:44:31;;;;;;;33.38;15.52;;;;;;;-3.54;92.09;104043.78;6104465;19;20093;-74
2023/02/08 05:46:39;;;;;;;44.25;17.90;;;;;;;-3.45;92.16;104047.00;6103817;19;20006;-74
2023/02/08 05:48:44;;;;;;;34.42;16.88;;;;;;;-3.39;91.67;104039.72;6105330;19;20018;-74
2023/02/08 05:50:50;;;;;;;35.05;15.52;;;;;;;-3.39;91.24;104041.41;6103179;19;20019;-74
2023/02/08 05:52:55;;;;;;;28.50;15.23;;;;;;;-3.41;91.22;104051.56;6098840;19;20090;-74
2023/02/08 05:55:01;;;;;;;44.28;18.52;;;;;;;-3.42;91.41;104041.16;6104889;19;20341;-74
2023/02/08 05:57:06;;;;;;;39.72;17.17;;;;;;;-3.47;91.19;104039.97;6101285;19;20010;-75
2023/02/08 05:59:11;;;;;;;45.13;22.08;;;;;;;-3.44;91.49;104035.94;6104060;19;20531;-75
2023/02/08 06:01:19;;;;;;;35.80;16.52;;;;;;;-3.42;91.43;104034.38;6102536;19;20029;-74
2023/02/08 06:03:27;;;;;;;37.80;18.10;;;;;;;-3.47;91.11;104030.59;6101981;19;20021;-75
2023/02/08 06:05:32;;;;;;;34.33;17.95;;;;;;;-3.49;91.23;104032.16;6099756;19;20014;-75
2023/02/08 06:07:37;;;;;;;32.25;15.35;;;;;;;-3.49;91.16;104031.25;6104499;19;20025;-74
2023/02/08 06:09:42;;;;;;;41.80;19.25;;;;;;;-3.45;91.41;104030.66;6105111;19;20019;-74
2023/02/08 06:11:47;;;;;;;38.20;17.90;;;;;;;-3.48;91.15;104031.34;6105375;19;20015;-74
2023/02/08 06:13:52;;;;;;;35.47;17.75;;;;;;;-3.49;91.01;104039.88;6106151;19;20031;-73
2023/02/08 06:15:58;;;;;;;36.28;16.65;;;;;;;-3.53;90.97;104043.00;6105278;19;20007;-74
2023/02/08 06:18:02;;;;;;;36.50;17.50;;;;;;;-3.58;91.06;104039.22;6100060;19;20113;-74
2023/02/08 06:20:13;;;;;;;31.55;16.20;;;;;;;-3.62;91.00;104050.97;6102211;19;20024;-73
2023/02/08 06:22:17;;;;;;;39.20;16.80;;;;;;;-3.67;91.09;104047.19;6103540;19;20381;-73
2023/02/08 06:24:24;;;;;;;40.90;17.88;;;;;;;-3.71;91.24;104037.50;6104783;19;20150;-73
2023/02/08 06:26:29;;;;;;;35.33;16.90;;;;;;;-3.73;91.39;104040.75;6104161;19;20027;-74
2023/02/08 06:28:33;;;;;;;35.63;16.50;;;;;;;-3.77;91.33;104034.47;6104467;19;20011;-74
2023/02/08 06:30:40;;;;;;;33.85;16.63;;;;;;;-3.78;91.50;104030.13;6103726;19;20010;-73
2023/02/08 06:32:45;;;;;;;26.60;15.63;;;;;;;-3.78;91.54;104041.31;6103007;19;20433;-73
2023/02/08 06:34:50;;;;;;;34.47;17.15;;;;;;;-3.79;91.36;104051.47;6104707;19;20015;-73
2023/02/08 06:37:00;;;;;;;23.38;12.73;;;;;;;-3.84;91.20;104047.72;6104500;19;20027;-74
2023/02/08 06:39:06;;;;;;;36.67;16.13;;;;;;;-3.89;91.03;104064.47;6105807;19;20026;-75
2023/02/08 06:41:11;;;;;;;32.40;16.90;;;;;;;-3.92;91.07;104059.09;6084782;19;20023;-74
2023/02/08 06:43:19;;;;;;;36.58;15.77;;;;;;;-3.98;90.75;104065.59;6103197;19;20050;-75
2023/02/08 06:45:28;;;;;;;36.78;18.73;;;;;;;-4.00;90.76;104064.59;6105025;19;20039;-76
2023/02/08 06:47:33;;;;;;;33.17;17.10;;;;;;;-4.05;91.12;104059.91;6102781;19;20014;-74
2023/02/08 06:49:40;;;;;;;37.40;15.93;;;;;;;-4.10;91.16;104068.97;6105198;19;20013;-74
2023/02/08 06:51:45;;;;;;;35.45;16.65;;;;;;;-4.10;91.68;104054.44;6104031;19;20088;-74
2023/02/08 06:53:53;;;;;;;33.88;16.23;;;;;;;-4.00;91.78;104059.47;6102219;19;20021;-74
2023/02/08 06:56:01;;;;;;;29.88;16.25;;;;;;;-3.92;91.86;104044.59;6103754;19;20031;-74
2023/02/08 06:58:06;;;;;;;37.63;16.95;;;;;;;-3.87;91.63;104048.38;6098275;19;20003;-74
2023/02/08 07:00:12;;;;;;;37.53;17.35;;;;;;;-3.86;91.44;104044.13;6102589;19;20023;-74
2023/02/08 07:02:20;;;;;;;29.55;14.63;;;;;;;-3.87;91.46;104043.25;6104835;19;20411;-74
2023/02/08 07:04:26;;;;;;;36.75;18.20;;;;;;;-3.79;91.54;104041.19;6103739;19;20479;-74
2023/02/08 07:06:31;;;;;;;40.67;19.10;;;;;;;-3.76;91.53;104044.88;6101867;19;20074;-74
2023/02/08 07:08:39;;;;;;;32.20;16.42;;;;;;;-3.73;91.41;104044.19;6098190;19;20014;-74
2023/02/08 07:10:48;;;;;;;33.25;16.85;;;;;;;-3.65;91.57;104045.63;6102439;19;20011;-74
2023/02/08 07:12:53;;;;;;;32.28;16.33;;;;;;;-3.67;91.17;104039.47;6102561;19;20090;-75
2023/02/08 07:15:00;;;;;;;40.08;18.00;;;;;;;-3.62;91.07;104038.13;6100458;19;20011;-74
2023/02/08 07:17:06;;;;;;;31.20;15.43;;;;;;;-3.62;90.99;104037.25;6104825;19;20017;-74
2023/02/08 07:19:13;;;;;;;37.28;17.02;;;;;;;-3.56;91.13;104040.22;6106628;19;20500;-74
2023/02/08 07:21:20;;;;;;;34.58;17.75;;;;;;;-3.55;91.06;104037.78;6102705;19;20054;-74
2023/02/08 07:23:29;;;;;;;37.33;15.48;;;;;;;-3.51;91.00;104038.84;6100352;19;20011;-75
2023/02/08 07:25:36;;;;;;;31.30;16.65;;;;;;;-3.54;90.74;104031.81;6102900;19;20348;-74
2023/02/08 07:27:44;;;;;;;41.25;17.25;;;;;;;-3.59;90.76;104040.00;6104884;19;20364;-75
2023/02/08 07:29:50;;;;;;;33.78;17.08;;;;;;;-3.64;90.54;104037.13;6083770;19;20029;-74
2023/02/08 07:31:56;;;;;;;34.92;17.70;;;;;;;-3.67;90.87;104043.72;6089299;19;20473;-75
2023/02/08 07:34:04;;;;;;;39.72;17.70;;;;;;;-3.68;91.11;104040.28;6104898;19;20359;-75
2023/02/08 07:36:11;;;;;;;35.08;18.38;;;;;;;-3.70;90.73;104043.53;6106658;19;20010;-75
2023/02/08 07:38:17;;;;;;;38.75;17.75;;;;;;;-3.70;90.91;104041.84;6105039;19;20503;-74
2023/02/08 07:40:25;;;;;;;35.92;17.23;;;;;;;-3.68;91.09;104034.25;6101428;19;20098;-75
2023/02/08 07:42:30;;;;;;;34.05;16.83;;;;;;;-3.67;90.98;104030.88;6102294;19;20474;-74
2023/02/08 07:44:38;;;;;;;43.08;19.50;;;;;;;-3.67;91.35;104024.06;6101803;19;20487;-75
2023/02/08 07:46:46;;;;;;;36.70;16.60;;;;;;;-3.62;90.96;104027.84;6104002;19;20101;-75
2023/02/08 07:48:52;;;;;;;42.15;18.67;;;;;;;-3.63;90.74;104033.78;6104146;19;20047;-76
2023/02/08 07:50:57;;;;;;;38.03;18.08;;;;;;;-3.62;90.76;104035.56;6105262;19;20027;-75
2023/02/08 07:53:02;;;;;;;35.33;17.15;;;;;;;-3.63;90.88;104044.06;6100659;19;20480;-75
2023/02/08 07:55:15;;;;;;;39.53;16.38;;;;;;;-3.63;91.19;104038.91;6101995;19;20007;-76
2023/02/08 07:57:21;;;;;;;36.50;18.00;;;;;;;-3.61;91.00;104036.44;6101936;19;20312;-77
2023/02/08 07:59:27;;;;;;;43.42;17.77;;;;;;;-3.54;90.93;104033.50;6099707;19;20463;-74
2023/02/08 08:01:35;;;;;;;35.55;17.98;;;;;;;-3.54;91.08;104034.41;6098933;19;20014;-75
2023/02/08 08:03:40;;;;;;;34.70;17.70;;;;;;;-3.48;90.98;104033.03;6099237;19;20591;-74
2023/02/08 08:05:48;;;;;;;41.50;19.58;;;;;;;-3.41;91.10;104031.00;6098515;19;20499;-74
2023/02/08 08:07:58;;;;;;;48.47;18.60;;;;;;;-3.35;90.89;104025.38;6071702;19;20014;-75
2023/02/08 08:10:03;;;;;;;38.50;18.77;;;;;;;-3.34;90.63;104032.31;6103544;19;19999;-74
2023/02/08 08:12:09;;;;;;;44.38;21.55;;;;;;;-3.27;90.99;104026.78;6095301;19;20021;-74
2023/02/08 08:14:14;;;;;;;37.85;18.35;;;;;;;-3.29;90.76;104024.91;6078343;19;20029;-74
2023/02/08 08:16:20;;;;;;;40.92;17.58;;;;;;;-3.30;90.73;104024.00;6097984;19;20017;-76
2023/02/08 08:18:30;;;;;;;37.00;17.23;;;;;;;-3.25;90.84;104027.78;6101906;19;20009;-75
2023/02/08 08:20:35;;;;;;;35.97;17.85;;;;;;;-3.14;90.75;104023.34;6096864;19;20496;-74
2023/02/08 08:22:41;;;;;;;38.95;19.73;;;;;;;-3.06;90.68;104029.91;6101685;19;20021;-75
2023/02/08 08:24:46;;;;;;;41.05;20.10;;;;;;;-2.96;90.35;104026.28;6099850;19;20106;-75
2023/02/08 08:26:54;;;;;;;38.67;18.70;;;;;;;-2.87;90.12;104024.28;6099323;19;20716;-76
2023/02/08 08:29:05;;;;;;;38.88;19.02;;;;;;;-2.84;89.99;104027.09;6101479;19;20010;-76
2023/02/08 08:31:15;;;;;;;41.50;19.40;;;;;;;-2.82;90.30;104027.19;6100315;19;20011;-74
2023/02/08 08:33:21;;;;;;;45.97;20.13;;;;;;;-2.81;90.03;104027.28;6097538;19;20036;-76
2023/02/08 08:35:32;;;;;;;45.92;20.42;;;;;;;-2.77;90.08;104033.53;6099582;19;20084;-76
2023/02/08 08:37:40;;;;;;;47.20;22.63;;;;;;;-2.67;90.10;104029.06;6098976;19;20090;-75
2023/02/08 08:39:46;;;;;;;52.40;22.20;;;;;;;-2.53;89.72;104029.06;6100789;19;20314;-74
2023/02/08 08:41:53;;;;;;;40.17;19.75;;;;;;;-2.42;89.59;104025.53;6094158;19;20375;-76
2023/02/08 08:44:01;;;;;;;51.38;22.30;;;;;;;-2.33;89.25;104031.25;6100743;19;20015;-75
2023/02/08 08:46:10;;;;;;;38.25;20.30;;;;;;;-2.27;88.98;104026.47;6098611;19;20021;-73
2023/02/08 08:48:15;;;;;;;55.90;25.25;;;;;;;-2.14;88.42;104017.84;6091563;19;20030;-75
2023/02/08 08:50:20;;;;;;;47.33;22.65;;;;;;;-2.08;88.55;104012.19;6100820;19;20010;-75
2023/02/08 08:52:29;;;;;;;52.47;24.95;;;;;;;-1.96;87.97;104012.97;6098210;19;20549;-74
2023/02/08 08:54:36;;;;;;;56.65;23.33;;;;;;;-1.94;87.55;104013.06;6101195;19;20035;-74
2023/02/08 08:56:42;;;;;;;52.55;24.30;;;;;;;-1.84;87.44;104011.16;6101660;19;20031;-75
2023/02/08 08:58:47;;;;;;;55.33;23.88;;;;;;;-1.81;87.15;104007.88;6097660;19;20017;-73
2023/02/08 09:00:52;;;;;;;56.85;24.60;;;;;;;-1.79;86.92;104004.59;6099634;19;20010;-75
2023/02/08 09:02:57;;;;;;;45.70;23.98;;;;;;;-1.59;85.80;104008.38;6096493;19;20344;-74
2023/02/08 09:05:04;;;;;;;51.92;25.65;;;;;;;-1.60;86.08;104004.03;6099224;19;20435;-74
2023/02/08 09:07:12;;;;;;;46.42;23.67;;;;;;;-1.54;86.20;104011.22;6098650;19;20658;-74
2023/02/08 09:09:22;;;;;;;59.80;25.60;;;;;;;-1.49;85.99;104006.38;6096692;19;20003;-74
2023/02/08 09:11:28;;;;;;;58.33;26.25;;;;;;;-1.47;85.96;104013.41;6100878;19;20256;-74
2023/02/08 09:13:32;;;;;;;51.65;24.17;;;;;;;-1.44;85.72;104008.41;6102180;19;20019;-74
2023/02/08 09:15:40;;;;;;;55.58;23.77;;;;;;;-1.36;86.21;104014.91;6106226;19;20017;-73
2023/02/08 09:17:45;;;;;;;55.67;26.02;;;;;;;-1.24;85.18;104008.69;6104073;19;20241;-74
2023/02/08 09:19:53;;;;;;;57.08;24.67;;;;;;;-1.23;85.35;104011.38;6099295;19;20055;-73
2023/02/08 09:21:59;;;;;;;56.92;26.73;;;;;;;-1.09;84.51;104019.94;6104645;19;20010;-74
2023/02/08 09:24:05;;;;;;;50.60;23.45;;;;;;;-1.03;85.15;104016.81;6107726;19;20014;-74
2023/02/08 09:26:15;;;;;;;58.20;26.75;;;;;;;-0.84;84.21;104018.75;6103939;19;20015;-73
2023/02/08 09:28:20;;;;;;;52.13;26.42;;;;;;;-0.73;84.46;104023.75;6103905;19;20010;-75
2023/02/08 09:30:26;;;;;;;61.58;25.63;;;;;;;-0.63;82.76;104014.84;6104492;19;20010;-74
2023/02/08 09:32:33;;;;;;;52.47;24.50;;;;;;;-0.50;83.78;104017.31;6103462;19;20011;-73
2023/02/08 09:34:38;;;;;;;56.42;27.45;;;;;;;-0.33;82.46;104012.22;6103972;19;20057;-74
2023/02/08 09:36:44;;;;;;;48.95;21.50;;;;;;;-0.22;82.89;104024.03;6100970;19;20476;-74
2023/02/08 09:38:50;;;;;;;55.63;25.35;;;;;;;-0.10;82.68;104023.81;6101300;19;20019;-74
2023/02/08 09:41:06;;;;;;;62.35;27.25;;;;;;;0.08;80.97;104024.81;6103359;19;20090;-74
2023/02/08 09:43:20;;;;;;;60.00;26.45;;;;;;;0.19;80.69;104025.41;6099267;19;20031;-74
2023/02/08 09:45:39;;;;;;;46.03;22.63;;;;;;;0.29;79.91;104029.34;6101820;19;20010;-74